sensor_id;sensor_type;location;lat;lon;timestamp;temperature;humidity
77693;SHT31;66984;47.404;18.836;2023-01-31T00:00:50;3.83;76.84
77693;SHT31;66984;47.404;18.836;2023-01-31T00:01:53;3.86;76.74
77693;SHT31;66984;47.404;18.836;2023-01-31T00:02:55;3.76;76.64
77693;SHT31;66984;47.404;18.836;2023-01-31T00:04:11;3.81;76.46
77693;SHT31;66984;47.404;18.836;2023-01-31T00:05:27;3.81;76.39
77693;SHT31;66984;47.404;18.836;2023-01-31T00:06:35;3.83;76.28
77693;SHT31;66984;47.404;18.836;2023-01-31T00:07:38;3.83;76.35
77693;SHT31;66984;47.404;18.836;2023-01-31T00:08:41;3.81;76.22
77693;SHT31;66984;47.404;18.836;2023-01-31T00:09:50;3.78;76.35
77693;SHT31;66984;47.404;18.836;2023-01-31T00:10:57;3.77;76.41
77693;SHT31;66984;47.404;18.836;2023-01-31T00:12:00;3.77;76.43
77693;SHT31;66984;47.404;18.836;2023-01-31T00:13:03;3.78;76.33
77693;SHT31;66984;47.404;18.836;2023-01-31T00:14:07;3.77;76.33
77693;SHT31;66984;47.404;18.836;2023-01-31T00:15:16;3.80;76.14
77693;SHT31;66984;47.404;18.836;2023-01-31T00:16:21;3.81;76.05
77693;SHT31;66984;47.404;18.836;2023-01-31T00:17:23;3.83;75.97
77693;SHT31;66984;47.404;18.836;2023-01-31T00:18:26;3.81;76.02
77693;SHT31;66984;47.404;18.836;2023-01-31T00:19:29;3.77;75.88
77693;SHT31;66984;47.404;18.836;2023-01-31T00:20:39;3.77;75.79
77693;SHT31;66984;47.404;18.836;2023-01-31T00:21:42;3.80;75.70
77693;SHT31;66984;47.404;18.836;2023-01-31T00:22:46;3.74;75.77
77693;SHT31;66984;47.404;18.836;2023-01-31T00:23:50;3.74;75.53
77693;SHT31;66984;47.404;18.836;2023-01-31T00:24:52;3.78;75.53
77693;SHT31;66984;47.404;18.836;2023-01-31T00:26:24;3.77;75.33
77693;SHT31;66984;47.404;18.836;2023-01-31T00:27:27;3.76;75.26
77693;SHT31;66984;47.404;18.836;2023-01-31T00:28:29;3.73;75.33
77693;SHT31;66984;47.404;18.836;2023-01-31T00:29:35;3.73;75.32
77693;SHT31;66984;47.404;18.836;2023-01-31T00:30:44;3.70;75.21
77693;SHT31;66984;47.404;18.836;2023-01-31T00:31:47;3.71;75.17
77693;SHT31;66984;47.404;18.836;2023-01-31T00:32:49;3.71;75.14
77693;SHT31;66984;47.404;18.836;2023-01-31T00:33:53;3.71;75.18
77693;SHT31;66984;47.404;18.836;2023-01-31T00:34:56;3.76;75.03
77693;SHT31;66984;47.404;18.836;2023-01-31T00:36:08;3.74;75.11
77693;SHT31;66984;47.404;18.836;2023-01-31T00:37:11;3.77;74.97
77693;SHT31;66984;47.404;18.836;2023-01-31T00:38:13;3.81;74.96
77693;SHT31;66984;47.404;18.836;2023-01-31T00:39:16;3.84;74.56
77693;SHT31;66984;47.404;18.836;2023-01-31T00:40:19;3.83;74.69
77693;SHT31;66984;47.404;18.836;2023-01-31T00:41:31;3.86;74.64
77693;SHT31;66984;47.404;18.836;2023-01-31T00:42:34;3.90;74.60
77693;SHT31;66984;47.404;18.836;2023-01-31T00:43:37;3.91;74.60
77693;SHT31;66984;47.404;18.836;2023-01-31T00:44:40;3.93;74.22
77693;SHT31;66984;47.404;18.836;2023-01-31T00:45:42;3.94;74.26
77693;SHT31;66984;47.404;18.836;2023-01-31T00:46:52;3.95;74.15
77693;SHT31;66984;47.404;18.836;2023-01-31T00:47:55;3.97;74.11
77693;SHT31;66984;47.404;18.836;2023-01-31T00:48:57;3.99;74.03
77693;SHT31;66984;47.404;18.836;2023-01-31T00:50:00;3.98;73.86
77693;SHT31;66984;47.404;18.836;2023-01-31T00:51:04;4.04;74.00
77693;SHT31;66984;47.404;18.836;2023-01-31T00:52:13;4.02;73.89
77693;SHT31;66984;47.404;18.836;2023-01-31T00:53:16;4.08;73.78
77693;SHT31;66984;47.404;18.836;2023-01-31T00:54:24;4.07;73.61
77693;SHT31;66984;47.404;18.836;2023-01-31T00:55:27;4.08;73.74
77693;SHT31;66984;47.404;18.836;2023-01-31T00:56:30;4.09;73.56
77693;SHT31;66984;47.404;18.836;2023-01-31T00:57:39;4.09;73.57
77693;SHT31;66984;47.404;18.836;2023-01-31T00:58:42;4.14;73.44
77693;SHT31;66984;47.404;18.836;2023-01-31T00:59:45;4.09;73.35
77693;SHT31;66984;47.404;18.836;2023-01-31T01:00:48;4.12;73.16
77693;SHT31;66984;47.404;18.836;2023-01-31T01:01:53;4.14;73.30
77693;SHT31;66984;47.404;18.836;2023-01-31T01:03:03;4.14;73.18
77693;SHT31;66984;47.404;18.836;2023-01-31T01:04:14;4.12;73.13
77693;SHT31;66984;47.404;18.836;2023-01-31T01:05:30;4.14;73.11
77693;SHT31;66984;47.404;18.836;2023-01-31T01:06:33;4.15;73.07
77693;SHT31;66984;47.404;18.836;2023-01-31T01:07:37;4.14;73.04
77693;SHT31;66984;47.404;18.836;2023-01-31T01:08:47;4.18;72.82
77693;SHT31;66984;47.404;18.836;2023-01-31T01:09:50;4.18;72.67
77693;SHT31;66984;47.404;18.836;2023-01-31T01:10:56;4.18;72.72
77693;SHT31;66984;47.404;18.836;2023-01-31T01:11:59;4.18;72.75
77693;SHT31;66984;47.404;18.836;2023-01-31T01:13:02;4.21;72.75
77693;SHT31;66984;47.404;18.836;2023-01-31T01:14:11;4.22;72.59
77693;SHT31;66984;47.404;18.836;2023-01-31T01:15:14;4.22;72.46
77693;SHT31;66984;47.404;18.836;2023-01-31T01:16:23;4.26;72.38
77693;SHT31;66984;47.404;18.836;2023-01-31T01:17:26;4.29;72.43
77693;SHT31;66984;47.404;18.836;2023-01-31T01:18:29;4.31;72.32
77693;SHT31;66984;47.404;18.836;2023-01-31T01:19:38;4.31;72.18
77693;SHT31;66984;47.404;18.836;2023-01-31T01:20:41;4.34;72.13
77693;SHT31;66984;47.404;18.836;2023-01-31T01:21:44;4.29;72.18
77693;SHT31;66984;47.404;18.836;2023-01-31T01:22:47;4.35;71.79
77693;SHT31;66984;47.404;18.836;2023-01-31T01:23:50;4.32;71.85
77693;SHT31;66984;47.404;18.836;2023-01-31T01:24:59;4.38;71.85
77693;SHT31;66984;47.404;18.836;2023-01-31T01:26:04;4.36;71.78
77693;SHT31;66984;47.404;18.836;2023-01-31T01:27:07;4.38;71.84
77693;SHT31;66984;47.404;18.836;2023-01-31T01:28:10;4.38;71.76
77693;SHT31;66984;47.404;18.836;2023-01-31T01:29:12;4.38;71.61
77693;SHT31;66984;47.404;18.836;2023-01-31T01:30:22;4.39;71.61
77693;SHT31;66984;47.404;18.836;2023-01-31T01:31:25;4.41;71.60
77693;SHT31;66984;47.404;18.836;2023-01-31T01:32:31;4.35;71.65
77693;SHT31;66984;47.404;18.836;2023-01-31T01:33:35;4.35;71.59
77693;SHT31;66984;47.404;18.836;2023-01-31T01:34:38;4.35;71.62
77693;SHT31;66984;47.404;18.836;2023-01-31T01:35:47;4.35;71.55
77693;SHT31;66984;47.404;18.836;2023-01-31T01:36:50;4.29;71.54
77693;SHT31;66984;47.404;18.836;2023-01-31T01:37:54;4.31;71.55
77693;SHT31;66984;47.404;18.836;2023-01-31T01:38:57;4.36;71.62
77693;SHT31;66984;47.404;18.836;2023-01-31T01:40:00;4.34;71.51
77693;SHT31;66984;47.404;18.836;2023-01-31T01:41:10;4.29;71.55
77693;SHT31;66984;47.404;18.836;2023-01-31T01:42:20;4.26;71.53
77693;SHT31;66984;47.404;18.836;2023-01-31T01:44:57;4.24;71.65
77693;SHT31;66984;47.404;18.836;2023-01-31T01:46:08;4.24;71.62
77693;SHT31;66984;47.404;18.836;2023-01-31T01:48:31;4.19;71.60
77693;SHT31;66984;47.404;18.836;2023-01-31T01:49:35;4.17;71.65
77693;SHT31;66984;47.404;18.836;2023-01-31T01:50:43;4.14;71.69
77693;SHT31;66984;47.404;18.836;2023-01-31T01:51:57;4.14;71.76
77693;SHT31;66984;47.404;18.836;2023-01-31T01:53:08;4.11;71.84
77693;SHT31;66984;47.404;18.836;2023-01-31T01:54:16;4.15;71.75
77693;SHT31;66984;47.404;18.836;2023-01-31T01:55:49;4.14;71.60
77693;SHT31;66984;47.404;18.836;2023-01-31T01:57:02;4.15;71.78
77693;SHT31;66984;47.404;18.836;2023-01-31T01:58:12;4.12;71.77
77693;SHT31;66984;47.404;18.836;2023-01-31T01:59:33;4.12;71.81
77693;SHT31;66984;47.404;18.836;2023-01-31T02:00:38;4.11;71.82
77693;SHT31;66984;47.404;18.836;2023-01-31T02:01:49;4.09;71.90
77693;SHT31;66984;47.404;18.836;2023-01-31T02:02:59;4.09;71.91
77693;SHT31;66984;47.404;18.836;2023-01-31T02:04:14;4.11;71.87
77693;SHT31;66984;47.404;18.836;2023-01-31T02:05:41;4.12;71.84
77693;SHT31;66984;47.404;18.836;2023-01-31T02:06:52;4.14;71.68
77693;SHT31;66984;47.404;18.836;2023-01-31T02:07:55;4.12;71.65
77693;SHT31;66984;47.404;18.836;2023-01-31T02:08:58;4.09;71.59
77693;SHT31;66984;47.404;18.836;2023-01-31T02:10:11;4.04;71.92
77693;SHT31;66984;47.404;18.836;2023-01-31T02:11:25;4.04;71.89
77693;SHT31;66984;47.404;18.836;2023-01-31T02:12:34;4.05;71.93
77693;SHT31;66984;47.404;18.836;2023-01-31T02:13:40;3.99;71.91
77693;SHT31;66984;47.404;18.836;2023-01-31T02:14:44;4.01;72.00
77693;SHT31;66984;47.404;18.836;2023-01-31T02:15:48;4.04;71.96
77693;SHT31;66984;47.404;18.836;2023-01-31T02:16:56;4.01;71.93
77693;SHT31;66984;47.404;18.836;2023-01-31T02:18:02;3.98;72.06
77693;SHT31;66984;47.404;18.836;2023-01-31T02:19:37;3.98;72.11
77693;SHT31;66984;47.404;18.836;2023-01-31T02:21:26;4.01;72.06
77693;SHT31;66984;47.404;18.836;2023-01-31T02:22:34;3.98;71.95
77693;SHT31;66984;47.404;18.836;2023-01-31T02:25:26;4.02;71.96
77693;SHT31;66984;47.404;18.836;2023-01-31T02:33:52;4.02;71.96
77693;SHT31;66984;47.404;18.836;2023-01-31T02:39:38;4.07;71.86
77693;SHT31;66984;47.404;18.836;2023-01-31T02:42:19;4.14;71.69
77693;SHT31;66984;47.404;18.836;2023-01-31T02:48:13;4.17;71.51
77693;SHT31;66984;47.404;18.836;2023-01-31T02:49:37;4.14;71.52
77693;SHT31;66984;47.404;18.836;2023-01-31T02:50:59;4.09;71.53
77693;SHT31;66984;47.404;18.836;2023-01-31T02:53:35;4.09;71.48
77693;SHT31;66984;47.404;18.836;2023-01-31T02:54:38;4.12;71.17
77693;SHT31;66984;47.404;18.836;2023-01-31T02:56:20;4.18;71.15
77693;SHT31;66984;47.404;18.836;2023-01-31T02:57:26;4.19;71.02
77693;SHT31;66984;47.404;18.836;2023-01-31T02:58:32;4.22;70.98
77693;SHT31;66984;47.404;18.836;2023-01-31T02:59:37;4.25;70.98
77693;SHT31;66984;47.404;18.836;2023-01-31T03:00:42;4.24;70.84
77693;SHT31;66984;47.404;18.836;2023-01-31T03:01:59;4.29;70.82
77693;SHT31;66984;47.404;18.836;2023-01-31T03:03:11;4.25;70.70
77693;SHT31;66984;47.404;18.836;2023-01-31T03:04:21;4.26;70.77
77693;SHT31;66984;47.404;18.836;2023-01-31T03:05:37;4.29;70.73
77693;SHT31;66984;47.404;18.836;2023-01-31T03:07:59;4.31;70.64
77693;SHT31;66984;47.404;18.836;2023-01-31T03:10:58;4.26;70.53
77693;SHT31;66984;47.404;18.836;2023-01-31T03:16:01;4.31;70.25
77693;SHT31;66984;47.404;18.836;2023-01-31T03:18:01;4.32;70.06
77693;SHT31;66984;47.404;18.836;2023-01-31T03:19:15;4.32;70.13
77693;SHT31;66984;47.404;18.836;2023-01-31T03:20:33;4.26;70.27
77693;SHT31;66984;47.404;18.836;2023-01-31T03:22:57;4.21;70.36
77693;SHT31;66984;47.404;18.836;2023-01-31T03:24:04;4.18;70.27
77693;SHT31;66984;47.404;18.836;2023-01-31T03:25:09;4.17;70.44
77693;SHT31;66984;47.404;18.836;2023-01-31T03:26:15;4.21;70.38
77693;SHT31;66984;47.404;18.836;2023-01-31T03:27:19;4.17;70.43
77693;SHT31;66984;47.404;18.836;2023-01-31T03:28:31;4.15;70.35
77693;SHT31;66984;47.404;18.836;2023-01-31T03:29:37;4.18;70.42
77693;SHT31;66984;47.404;18.836;2023-01-31T03:30:46;4.15;70.51
77693;SHT31;66984;47.404;18.836;2023-01-31T03:31:57;4.11;70.46
77693;SHT31;66984;47.404;18.836;2023-01-31T03:33:12;4.12;70.48
77693;SHT31;66984;47.404;18.836;2023-01-31T03:34:25;4.11;70.46
77693;SHT31;66984;47.404;18.836;2023-01-31T03:35:33;4.12;70.51
77693;SHT31;66984;47.404;18.836;2023-01-31T03:37:16;4.11;70.70
77693;SHT31;66984;47.404;18.836;2023-01-31T03:38:26;4.09;70.57
77693;SHT31;66984;47.404;18.836;2023-01-31T03:41:07;4.08;70.59
77693;SHT31;66984;47.404;18.836;2023-01-31T03:42:21;4.07;70.61
77693;SHT31;66984;47.404;18.836;2023-01-31T03:43:50;4.07;70.82
77693;SHT31;66984;47.404;18.836;2023-01-31T03:45:22;3.98;70.94
77693;SHT31;66984;47.404;18.836;2023-01-31T03:46:39;3.99;71.11
77693;SHT31;66984;47.404;18.836;2023-01-31T03:47:47;4.01;71.07
77693;SHT31;66984;47.404;18.836;2023-01-31T03:48:53;3.95;71.12
77693;SHT31;66984;47.404;18.836;2023-01-31T03:50:08;3.95;71.19
77693;SHT31;66984;47.404;18.836;2023-01-31T03:51:18;3.91;71.32
77693;SHT31;66984;47.404;18.836;2023-01-31T03:52:29;3.91;71.41
77693;SHT31;66984;47.404;18.836;2023-01-31T03:53:39;3.87;71.46
77693;SHT31;66984;47.404;18.836;2023-01-31T03:54:56;3.83;71.61
77693;SHT31;66984;47.404;18.836;2023-01-31T03:56:13;3.84;71.52
77693;SHT31;66984;47.404;18.836;2023-01-31T03:57:24;3.88;71.43
77693;SHT31;66984;47.404;18.836;2023-01-31T03:58:34;3.91;71.38
77693;SHT31;66984;47.404;18.836;2023-01-31T03:59:49;3.91;71.40
77693;SHT31;66984;47.404;18.836;2023-01-31T04:00:58;3.91;71.44
77693;SHT31;66984;47.404;18.836;2023-01-31T04:02:06;3.95;71.34
77693;SHT31;66984;47.404;18.836;2023-01-31T04:03:25;3.94;71.46
77693;SHT31;66984;47.404;18.836;2023-01-31T04:05:25;4.01;71.41
77693;SHT31;66984;47.404;18.836;2023-01-31T04:06:14;4.01;71.36
77693;SHT31;66984;47.404;18.836;2023-01-31T04:07:18;4.01;71.46
77693;SHT31;66984;47.404;18.836;2023-01-31T04:08:21;3.98;71.57
77693;SHT31;66984;47.404;18.836;2023-01-31T04:09:25;4.01;71.67
77693;SHT31;66984;47.404;18.836;2023-01-31T04:10:35;3.97;71.81
77693;SHT31;66984;47.404;18.836;2023-01-31T04:11:40;3.98;71.99
77693;SHT31;66984;47.404;18.836;2023-01-31T04:12:45;3.97;72.06
77693;SHT31;66984;47.404;18.836;2023-01-31T04:13:47;3.97;72.23
77693;SHT31;66984;47.404;18.836;2023-01-31T04:14:50;3.99;72.21
77693;SHT31;66984;47.404;18.836;2023-01-31T04:16:02;3.97;72.25
77693;SHT31;66984;47.404;18.836;2023-01-31T04:17:05;3.99;72.40
77693;SHT31;66984;47.404;18.836;2023-01-31T04:18:08;3.97;72.41
77693;SHT31;66984;47.404;18.836;2023-01-31T04:19:11;3.98;72.39
77693;SHT31;66984;47.404;18.836;2023-01-31T04:20:14;4.01;72.34
77693;SHT31;66984;47.404;18.836;2023-01-31T04:21:25;4.01;72.45
77693;SHT31;66984;47.404;18.836;2023-01-31T04:22:27;3.99;72.58
77693;SHT31;66984;47.404;18.836;2023-01-31T04:23:30;4.01;72.65
77693;SHT31;66984;47.404;18.836;2023-01-31T04:24:33;4.01;72.63
77693;SHT31;66984;47.404;18.836;2023-01-31T04:25:37;4.01;72.68
77693;SHT31;66984;47.404;18.836;2023-01-31T04:26:46;4.04;72.71
77693;SHT31;66984;47.404;18.836;2023-01-31T04:27:49;4.02;72.67
77693;SHT31;66984;47.404;18.836;2023-01-31T04:28:52;4.01;72.68
77693;SHT31;66984;47.404;18.836;2023-01-31T04:29:55;3.98;72.80
77693;SHT31;66984;47.404;18.836;2023-01-31T04:30:58;3.94;72.90
77693;SHT31;66984;47.404;18.836;2023-01-31T04:32:09;3.98;73.05
77693;SHT31;66984;47.404;18.836;2023-01-31T04:33:14;3.94;73.03
77693;SHT31;66984;47.404;18.836;2023-01-31T04:34:17;3.88;73.14
77693;SHT31;66984;47.404;18.836;2023-01-31T04:35:19;3.90;73.17
77693;SHT31;66984;47.404;18.836;2023-01-31T04:36:24;3.91;73.06
77693;SHT31;66984;47.404;18.836;2023-01-31T04:37:33;3.94;73.00
77693;SHT31;66984;47.404;18.836;2023-01-31T04:38:41;4.02;72.87
77693;SHT31;66984;47.404;18.836;2023-01-31T04:39:43;3.98;72.81
77693;SHT31;66984;47.404;18.836;2023-01-31T04:40:46;3.97;72.82
77693;SHT31;66984;47.404;18.836;2023-01-31T04:41:49;3.95;73.01
77693;SHT31;66984;47.404;18.836;2023-01-31T04:43:00;3.95;73.04
77693;SHT31;66984;47.404;18.836;2023-01-31T04:44:04;3.98;73.30
77693;SHT31;66984;47.404;18.836;2023-01-31T04:45:07;3.93;73.50
77693;SHT31;66984;47.404;18.836;2023-01-31T04:46:10;3.95;73.89
77693;SHT31;66984;47.404;18.836;2023-01-31T04:47:13;3.95;74.53
77693;SHT31;66984;47.404;18.836;2023-01-31T04:48:23;3.91;75.90
77693;SHT31;66984;47.404;18.836;2023-01-31T04:49:25;3.91;76.65
77693;SHT31;66984;47.404;18.836;2023-01-31T04:50:29;3.87;77.51
77693;SHT31;66984;47.404;18.836;2023-01-31T04:51:32;3.87;78.16
77693;SHT31;66984;47.404;18.836;2023-01-31T04:52:34;3.88;78.52
77693;SHT31;66984;47.404;18.836;2023-01-31T04:53:45;3.87;78.88
77693;SHT31;66984;47.404;18.836;2023-01-31T04:54:48;3.86;79.01
77693;SHT31;66984;47.404;18.836;2023-01-31T04:55:54;3.78;79.54
77693;SHT31;66984;47.404;18.836;2023-01-31T04:56:56;3.71;79.60
77693;SHT31;66984;47.404;18.836;2023-01-31T04:57:59;3.73;79.70
77693;SHT31;66984;47.404;18.836;2023-01-31T04:59:09;3.69;79.82
77693;SHT31;66984;47.404;18.836;2023-01-31T05:00:12;3.64;79.87
77693;SHT31;66984;47.404;18.836;2023-01-31T05:01:15;3.67;80.12
77693;SHT31;66984;47.404;18.836;2023-01-31T05:02:18;3.64;80.15
77693;SHT31;66984;47.404;18.836;2023-01-31T05:03:20;3.62;79.93
77693;SHT31;66984;47.404;18.836;2023-01-31T05:04:30;3.63;80.18
77693;SHT31;66984;47.404;18.836;2023-01-31T05:05:49;3.53;80.45
77693;SHT31;66984;47.404;18.836;2023-01-31T05:06:53;3.55;80.51
77693;SHT31;66984;47.404;18.836;2023-01-31T05:07:55;3.56;80.54
77693;SHT31;66984;47.404;18.836;2023-01-31T05:09:00;3.60;80.34
77693;SHT31;66984;47.404;18.836;2023-01-31T05:10:10;3.55;80.41
77693;SHT31;66984;47.404;18.836;2023-01-31T05:11:13;3.59;80.46
77693;SHT31;66984;47.404;18.836;2023-01-31T05:12:15;3.56;80.44
77693;SHT31;66984;47.404;18.836;2023-01-31T05:13:19;3.56;80.47
77693;SHT31;66984;47.404;18.836;2023-01-31T05:14:22;3.57;80.38
77693;SHT31;66984;47.404;18.836;2023-01-31T05:15:32;3.60;80.19
77693;SHT31;66984;47.404;18.836;2023-01-31T05:16:35;3.62;80.06
77693;SHT31;66984;47.404;18.836;2023-01-31T05:17:38;3.63;79.87
77693;SHT31;66984;47.404;18.836;2023-01-31T05:18:40;3.70;79.62
77693;SHT31;66984;47.404;18.836;2023-01-31T05:19:51;3.67;79.50
77693;SHT31;66984;47.404;18.836;2023-01-31T05:20:54;3.67;79.42
77693;SHT31;66984;47.404;18.836;2023-01-31T05:21:59;3.64;79.38
77693;SHT31;66984;47.404;18.836;2023-01-31T05:23:01;3.64;79.40
77693;SHT31;66984;47.404;18.836;2023-01-31T05:24:04;3.66;79.32
77693;SHT31;66984;47.404;18.836;2023-01-31T05:25:14;3.64;79.29
77693;SHT31;66984;47.404;18.836;2023-01-31T05:26:17;3.69;79.17
77693;SHT31;66984;47.404;18.836;2023-01-31T05:27:20;3.67;79.14
77693;SHT31;66984;47.404;18.836;2023-01-31T05:28:25;3.67;79.15
77693;SHT31;66984;47.404;18.836;2023-01-31T05:29:31;3.62;79.13
77693;SHT31;66984;47.404;18.836;2023-01-31T05:30:41;3.63;79.00
77693;SHT31;66984;47.404;18.836;2023-01-31T05:31:44;3.63;78.85
77693;SHT31;66984;47.404;18.836;2023-01-31T05:32:47;3.63;78.72
77693;SHT31;66984;47.404;18.836;2023-01-31T05:33:51;3.63;78.68
77693;SHT31;66984;47.404;18.836;2023-01-31T05:34:55;3.59;78.67
77693;SHT31;66984;47.404;18.836;2023-01-31T05:36:04;3.63;78.36
77693;SHT31;66984;47.404;18.836;2023-01-31T05:37:07;3.63;78.28
77693;SHT31;66984;47.404;18.836;2023-01-31T05:38:10;3.63;78.28
77693;SHT31;66984;47.404;18.836;2023-01-31T05:39:12;3.63;78.26
77693;SHT31;66984;47.404;18.836;2023-01-31T05:40:16;3.64;78.11
77693;SHT31;66984;47.404;18.836;2023-01-31T05:41:25;3.67;78.02
77693;SHT31;66984;47.404;18.836;2023-01-31T05:42:28;3.63;78.00
77693;SHT31;66984;47.404;18.836;2023-01-31T05:43:30;3.63;77.96
77693;SHT31;66984;47.404;18.836;2023-01-31T05:44:36;3.64;77.91
77693;SHT31;66984;47.404;18.836;2023-01-31T05:45:39;3.67;77.74
77693;SHT31;66984;47.404;18.836;2023-01-31T05:46:51;3.64;77.61
77693;SHT31;66984;47.404;18.836;2023-01-31T05:47:54;3.62;77.64
77693;SHT31;66984;47.404;18.836;2023-01-31T05:49:03;3.62;77.46
77693;SHT31;66984;47.404;18.836;2023-01-31T05:50:06;3.66;77.40
77693;SHT31;66984;47.404;18.836;2023-01-31T05:51:09;3.62;77.20
77693;SHT31;66984;47.404;18.836;2023-01-31T05:52:18;3.63;77.19
77693;SHT31;66984;47.404;18.836;2023-01-31T05:53:21;3.63;77.01
77693;SHT31;66984;47.404;18.836;2023-01-31T05:54:24;3.66;76.93
77693;SHT31;66984;47.404;18.836;2023-01-31T05:55:26;3.64;76.77
77693;SHT31;66984;47.404;18.836;2023-01-31T05:56:29;3.63;76.62
77693;SHT31;66984;47.404;18.836;2023-01-31T05:57:39;3.63;76.65
77693;SHT31;66984;47.404;18.836;2023-01-31T05:58:42;3.63;76.62
77693;SHT31;66984;47.404;18.836;2023-01-31T05:59:45;3.60;76.50
77693;SHT31;66984;47.404;18.836;2023-01-31T06:00:49;3.63;76.39
77693;SHT31;66984;47.404;18.836;2023-01-31T06:01:52;3.59;76.30
77693;SHT31;66984;47.404;18.836;2023-01-31T06:03:02;3.56;76.39
77693;SHT31;66984;47.404;18.836;2023-01-31T06:04:05;3.53;76.28
77693;SHT31;66984;47.404;18.836;2023-01-31T06:05:08;3.53;76.43
77693;SHT31;66984;47.404;18.836;2023-01-31T06:06:25;3.55;76.29
77693;SHT31;66984;47.404;18.836;2023-01-31T06:07:27;3.50;76.14
77693;SHT31;66984;47.404;18.836;2023-01-31T06:08:37;3.53;76.23
77693;SHT31;66984;47.404;18.836;2023-01-31T06:09:40;3.56;76.07
77693;SHT31;66984;47.404;18.836;2023-01-31T06:10:45;3.52;76.08
77693;SHT31;66984;47.404;18.836;2023-01-31T06:11:48;3.50;75.96
77693;SHT31;66984;47.404;18.836;2023-01-31T06:12:53;3.56;75.78
77693;SHT31;66984;47.404;18.836;2023-01-31T06:14:03;3.53;75.62
77693;SHT31;66984;47.404;18.836;2023-01-31T06:15:08;3.56;75.67
77693;SHT31;66984;47.404;18.836;2023-01-31T06:16:11;3.56;75.40
77693;SHT31;66984;47.404;18.836;2023-01-31T06:17:14;3.57;75.38
77693;SHT31;66984;47.404;18.836;2023-01-31T06:18:16;3.62;75.20
77693;SHT31;66984;47.404;18.836;2023-01-31T06:19:26;3.60;75.10
77693;SHT31;66984;47.404;18.836;2023-01-31T06:20:29;3.64;74.92
77693;SHT31;66984;47.404;18.836;2023-01-31T06:21:32;3.62;74.77
77693;SHT31;66984;47.404;18.836;2023-01-31T06:22:34;3.60;74.65
77693;SHT31;66984;47.404;18.836;2023-01-31T06:23:40;3.60;74.47
77693;SHT31;66984;47.404;18.836;2023-01-31T06:24:53;3.59;74.36
77693;SHT31;66984;47.404;18.836;2023-01-31T06:25:56;3.59;74.44
77693;SHT31;66984;47.404;18.836;2023-01-31T06:26:59;3.63;74.33
77693;SHT31;66984;47.404;18.836;2023-01-31T06:28:03;3.59;74.10
77693;SHT31;66984;47.404;18.836;2023-01-31T06:29:09;3.62;74.07
77693;SHT31;66984;47.404;18.836;2023-01-31T06:30:20;3.66;74.07
77693;SHT31;66984;47.404;18.836;2023-01-31T06:31:23;3.64;74.04
77693;SHT31;66984;47.404;18.836;2023-01-31T06:32:27;3.71;74.00
77693;SHT31;66984;47.404;18.836;2023-01-31T06:33:30;3.71;73.96
77693;SHT31;66984;47.404;18.836;2023-01-31T06:34:47;3.73;73.81
77693;SHT31;66984;47.404;18.836;2023-01-31T06:35:58;3.74;73.73
77693;SHT31;66984;47.404;18.836;2023-01-31T06:37:01;3.77;73.36
77693;SHT31;66984;47.404;18.836;2023-01-31T06:38:05;3.80;73.35
77693;SHT31;66984;47.404;18.836;2023-01-31T06:39:09;3.77;73.18
77693;SHT31;66984;47.404;18.836;2023-01-31T06:40:15;3.78;73.89
77693;SHT31;66984;47.404;18.836;2023-01-31T06:41:24;3.81;73.76
77693;SHT31;66984;47.404;18.836;2023-01-31T06:42:27;3.83;73.33
77693;SHT31;66984;47.404;18.836;2023-01-31T06:43:30;3.78;73.42
77693;SHT31;66984;47.404;18.836;2023-01-31T06:44:33;3.81;73.41
77693;SHT31;66984;47.404;18.836;2023-01-31T06:45:38;3.84;73.07
77693;SHT31;66984;47.404;18.836;2023-01-31T06:46:47;3.88;72.95
77693;SHT31;66984;47.404;18.836;2023-01-31T06:47:50;3.87;72.96
77693;SHT31;66984;47.404;18.836;2023-01-31T06:48:53;3.91;72.95
77693;SHT31;66984;47.404;18.836;2023-01-31T06:49:56;3.93;72.91
77693;SHT31;66984;47.404;18.836;2023-01-31T06:50:58;3.97;72.86
77693;SHT31;66984;47.404;18.836;2023-01-31T06:52:07;3.91;72.64
77693;SHT31;66984;47.404;18.836;2023-01-31T06:53:10;3.93;72.57
77693;SHT31;66984;47.404;18.836;2023-01-31T06:54:12;3.93;72.41
77693;SHT31;66984;47.404;18.836;2023-01-31T06:55:15;3.94;72.21
77693;SHT31;66984;47.404;18.836;2023-01-31T06:56:18;4.01;72.16
77693;SHT31;66984;47.404;18.836;2023-01-31T06:57:27;3.98;71.87
77693;SHT31;66984;47.404;18.836;2023-01-31T06:58:30;4.02;71.93
77693;SHT31;66984;47.404;18.836;2023-01-31T06:59:35;4.01;71.85
77693;SHT31;66984;47.404;18.836;2023-01-31T07:00:37;4.04;71.81
77693;SHT31;66984;47.404;18.836;2023-01-31T07:01:40;4.08;71.75
77693;SHT31;66984;47.404;18.836;2023-01-31T07:02:50;4.14;71.80
77693;SHT31;66984;47.404;18.836;2023-01-31T07:03:53;4.14;71.51
77693;SHT31;66984;47.404;18.836;2023-01-31T07:04:56;4.15;71.63
77693;SHT31;66984;47.404;18.836;2023-01-31T07:06:15;4.18;71.68
77693;SHT31;66984;47.404;18.836;2023-01-31T07:07:21;4.18;71.56
77693;SHT31;66984;47.404;18.836;2023-01-31T07:08:31;4.21;71.70
77693;SHT31;66984;47.404;18.836;2023-01-31T07:09:36;4.19;71.71
77693;SHT31;66984;47.404;18.836;2023-01-31T07:10:39;4.25;71.72
77693;SHT31;66984;47.404;18.836;2023-01-31T07:11:41;4.29;71.74
77693;SHT31;66984;47.404;18.836;2023-01-31T07:12:44;4.31;71.58
77693;SHT31;66984;47.404;18.836;2023-01-31T07:13:53;4.31;71.47
77693;SHT31;66984;47.404;18.836;2023-01-31T07:14:58;4.29;71.31
77693;SHT31;66984;47.404;18.836;2023-01-31T07:16:03;4.31;71.61
77693;SHT31;66984;47.404;18.836;2023-01-31T07:17:06;4.31;71.80
77693;SHT31;66984;47.404;18.836;2023-01-31T07:18:08;4.35;71.79
77693;SHT31;66984;47.404;18.836;2023-01-31T07:19:19;4.39;71.77
77693;SHT31;66984;47.404;18.836;2023-01-31T07:20:22;4.38;70.98
77693;SHT31;66984;47.404;18.836;2023-01-31T07:21:25;4.41;70.95
77693;SHT31;66984;47.404;18.836;2023-01-31T07:22:29;4.45;70.94
77693;SHT31;66984;47.404;18.836;2023-01-31T07:23:33;4.45;71.15
77693;SHT31;66984;47.404;18.836;2023-01-31T07:24:42;4.50;71.05
77693;SHT31;66984;47.404;18.836;2023-01-31T07:25:45;4.56;71.02
77693;SHT31;66984;47.404;18.836;2023-01-31T07:26:51;4.62;71.26
77693;SHT31;66984;47.404;18.836;2023-01-31T07:27:54;4.66;70.85
77693;SHT31;66984;47.404;18.836;2023-01-31T07:28:57;4.69;70.88
77693;SHT31;66984;47.404;18.836;2023-01-31T07:30:06;4.77;70.84
77693;SHT31;66984;47.404;18.836;2023-01-31T07:31:13;4.75;70.48
77693;SHT31;66984;47.404;18.836;2023-01-31T07:32:18;4.81;70.67
77693;SHT31;66984;47.404;18.836;2023-01-31T07:33:20;4.80;70.57
77693;SHT31;66984;47.404;18.836;2023-01-31T07:34:23;4.87;70.44
77693;SHT31;66984;47.404;18.836;2023-01-31T07:35:32;4.86;70.34
77693;SHT31;66984;47.404;18.836;2023-01-31T07:36:35;4.87;70.15
77693;SHT31;66984;47.404;18.836;2023-01-31T07:37:39;4.91;70.31